Time;durP1;ratioP1;P1;durP2;ratioP2;P2;SDS_P1;SDS_P2;PMS_P1;PMS_P2;Temp;Humidity;BMP_temperature;BMP_pressure;BME280_temperature;BME280_humidity;BME280_pressure;Samples;Min_cycle;Max_cycle;Signal;HPM_P1;HPM_P2
2023/06/19 00:02:41;;;;;;;;;10.33;7.00;;;;;20.06;100.00;100995.50;5045173;28;45318;-80
2023/06/19 00:08:23;;;;;;;;;5.67;5.67;;;;;19.40;100.00;100883.00;5053875;28;45467;-79
2023/06/19 00:10:48;;;;;;;;;6.00;5.33;;;;;19.47;100.00;100911.06;5043790;28;46736;-81
2023/06/19 00:13:58;;;;;;;;;5.00;5.00;;;;;19.48;100.00;100924.31;5057374;28;45289;-80
2023/06/19 00:16:16;;;;;;;;;8.33;7.67;;;;;19.84;100.00;100976.78;5039587;28;45209;-81
2023/06/19 00:18:42;;;;;;;;;9.67;6.00;;;;;19.33;100.00;100900.56;5049450;28;45617;-81
2023/06/19 00:21:13;;;;;;;;;9.67;7.67;;;;;19.29;100.00;100910.69;5060604;28;45459;-80
2023/06/19 00:23:42;;;;;;;;;8.67;6.00;;;;;19.39;100.00;100921.50;5051879;28;45396;-80
2023/06/19 00:26:07;;;;;;;;;9.33;7.33;;;;;19.66;100.00;100971.13;5041646;28;45452;-81
2023/06/19 00:28:44;;;;;;;;;6.00;6.00;;;;;19.47;100.00;100957.47;5053391;28;45524;-81
2023/06/19 00:34:28;;;;;;;;;10.00;9.67;;;;;19.33;100.00;100959.56;5067041;28;45261;-81
2023/06/19 00:37:17;;;;;;;;;9.33;9.33;;;;;19.66;100.00;101002.47;5041933;28;45608;-80
2023/06/19 00:40:25;;;;;;;;;10.33;8.33;;;;;19.17;100.00;100919.75;5053832;28;45623;-81
2023/06/19 00:43:01;;;;;;;;;;;;;;;;;;;;;
2023/06/19 00:45:50;;;;;;;;;9.67;8.33;;;;;19.59;100.00;101041.50;5072001;28;71734;-82
2023/06/19 00:48:50;;;;;;;;;12.00;8.67;;;;;19.13;100.00;100956.66;5033401;28;45432;-81
2023/06/19 00:51:36;;;;;;;;;12.00;9.00;;;;;19.09;100.00;100962.38;5032411;28;45543;-81
2023/06/19 00:54:20;;;;;;;;;;;;;;;;;;;;;
2023/06/19 00:57:15;;;;;;;;;9.67;7.00;;;;;19.61;100.00;101052.97;5046968;28;73694;-82
2023/06/19 00:59:57;;;;;;;;;7.33;7.33;;;;;18.99;100.00;100961.41;5039581;28;45320;-82
2023/06/19 01:05:33;;;;;;;;;8.33;8.33;;;;;19.09;100.00;100981.16;5055704;28;46802;-82
2023/06/19 01:08:34;;;;;;;;;11.00;11.00;;;;;19.55;100.00;101062.38;5049025;28;45525;-80
2023/06/19 01:11:23;;;;;;;;;13.67;11.00;;;;;19.09;100.00;101003.47;5056942;28;45469;-81
2023/06/19 01:13:59;;;;;;;;;12.67;9.67;;;;;19.04;100.00;100980.69;5043543;28;45327;-80
2023/06/19 01:16:39;;;;;;;;;11.67;10.00;;;;;19.03;100.00;100981.66;5041997;28;46761;-81
2023/06/19 01:22:51;;;;;;;;;8.67;8.33;;;;;19.44;100.00;101091.00;5052669;28;45299;-81
2023/06/19 01:25:18;;;;;;;;;11.67;10.67;;;;;18.88;100.00;100983.69;5020340;28;45408;-82
2023/06/19 01:27:47;;;;;;;;;9.33;9.33;;;;;18.82;100.00;100983.31;5044365;28;46606;-80
2023/06/19 01:30:13;;;;;;;;;11.67;9.33;;;;;19.16;100.00;101018.09;5055304;28;45544;-80
2023/06/19 01:32:41;;;;;;;;;12.00;9.67;;;;;18.88;100.00;100994.41;5045153;28;45494;-80
2023/06/19 01:35:12;;;;;;;;;8.67;8.67;;;;;18.93;100.00;101002.97;5074306;27;45659;-80
2023/06/19 01:37:40;;;;;;;;;8.67;8.33;;;;;19.31;100.00;101069.63;5076103;28;46616;-81
2023/06/19 01:40:20;;;;;;;;;;;;;;;;;;;;;
2023/06/19 01:42:46;;;;;;;;;12.00;9.00;;;;;19.15;100.00;101019.06;5091312;27;68675;-82
2023/06/19 01:45:31;;;;;;;;;11.67;11.67;;;;;18.79;100.00;100963.00;5064083;28;45373;-81
2023/06/19 01:48:00;;;;;;;;;9.67;9.67;;;;;19.21;100.00;101047.22;5081998;28;45445;-79
2023/06/19 01:50:38;;;;;;;;;11.00;11.00;;;;;18.69;100.00;100960.19;5058176;27;45449;-80
2023/06/19 01:53:29;;;;;;;;;10.33;8.67;;;;;18.99;100.00;101013.22;5056554;27;45338;-80
2023/06/19 01:58:50;;;;;;;;;10.67;9.67;;;;;19.03;100.00;101025.41;5075967;27;45442;-81
2023/06/19 02:01:25;;;;;;;;;13.33;11.00;;;;;19.13;100.00;101052.34;5049014;27;45334;-80
2023/06/19 02:03:57;;;;;;;;;13.33;13.33;;;;;18.84;100.00;101014.41;5063606;28;45326;-81
2023/06/19 02:06:36;;;;;;;;;12.67;12.33;;;;;18.76;100.00;100992.72;5066996;28;45369;-80
2023/06/19 02:09:08;;;;;;;;;12.67;11.33;;;;;18.93;100.00;101029.78;5051541;28;46884;-80
2023/06/19 02:11:55;;;;;;;;;;;;;;;;;;;;;
2023/06/19 02:14:53;;;;;;;;;14.33;11.00;;;;;18.56;100.00;100986.22;5066347;28;67829;-80
2023/06/19 02:17:51;;;;;;;;;11.67;11.33;;;;;18.60;100.00;100989.53;5043536;28;45668;-81
2023/06/19 02:20:31;;;;;;;;;12.33;11.33;;;;;19.16;100.00;101100.34;5058550;28;47417;-82
2023/06/19 02:23:31;;;;;;;;;;;;;;;;;;;;;
2023/06/19 02:26:01;;;;;;;;;15.00;13.33;;;;;19.13;100.00;101089.88;5073676;28;70376;-80
2023/06/19 02:29:00;;;;;;;;;14.67;13.67;;;;;18.63;100.00;101008.03;5075444;27;45533;-80
2023/06/19 02:34:53;;;;;;;;;12.67;12.67;;;;;18.54;100.00;100992.69;5073957;27;45532;-80
2023/06/19 02:37:19;;;;;;;;;9.67;9.67;;;;;19.05;100.00;101101.19;5071441;27;45548;-80
2023/06/19 02:40:51;;;;;;;;;19.33;14.00;;;;;19.02;100.00;101089.84;5079636;27;45837;-81
2023/06/19 02:46:42;;;;;;;;;14.33;13.33;;;;;18.38;100.00;101009.03;5034029;28;45650;-82
2023/06/19 02:49:24;;;;;;;;;18.67;14.67;;;;;18.84;100.00;101088.59;5075464;28;45508;-82
2023/06/19 02:52:00;;;;;;;;;16.67;15.67;;;;;18.92;100.00;101121.88;5071102;28;45569;-81
2023/06/19 02:54:42;;;;;;;;;17.00;14.67;;;;;18.71;100.00;101086.00;5058482;28;48547;-81
2023/06/19 02:57:53;;;;;;;;;8.67;8.67;;;;;18.87;100.00;101110.66;5041820;28;45354;-81
2023/06/19 03:00:28;;;;;;;;;15.33;14.33;;;;;18.41;100.00;101027.56;4978989;28;45472;-82
2023/06/19 03:03:06;;;;;;;;;15.00;15.00;;;;;18.39;100.00;101031.31;4951732;28;45640;-82
2023/06/19 03:09:30;;;;;;;;;13.00;13.00;;;;;18.38;100.00;101018.91;5054100;28;45299;-81
2023/06/19 03:12:27;;;;;;;;;15.00;13.00;;;;;18.22;100.00;100993.25;5058321;28;45395;-81
2023/06/19 03:15:16;;;;;;;;;14.00;13.67;;;;;18.33;100.00;101015.69;5071516;27;45484;-80
2023/06/19 03:18:09;;;;;;;;;;;;;;;;;;;;;
2023/06/19 03:20:55;;;;;;;;;15.00;12.67;;;;;18.13;100.00;100993.09;5071798;27;72289;-82
2023/06/19 03:23:22;;;;;;;;;15.00;12.67;;;;;18.39;100.00;101047.41;5056485;28;45331;-80
2023/06/19 03:26:29;;;;;;;;;14.67;12.33;;;;;18.43;100.00;101046.16;5074702;27;45420;-81
2023/06/19 03:29:16;;;;;;;;;;;;;;;;;;;;;
2023/06/19 03:32:20;;;;;;;;;14.00;12.00;;;;;18.66;100.00;101123.00;5088150;27;72647;-80
2023/06/19 03:34:48;;;;;;;;;16.33;14.00;;;;;18.24;100.00;101044.03;5058613;28;45644;-80
2023/06/19 03:37:32;;;;;;;;;16.33;14.33;;;;;18.35;100.00;101057.47;5070304;28;45344;-80
2023/06/19 03:40:06;;;;;;;;;19.33;13.67;;;;;18.45;100.00;101097.81;5042095;28;48077;-80
2023/06/19 03:42:58;;;;;;;;;15.67;15.33;;;;;18.05;100.00;101051.75;5045495;28;45795;-81
2023/06/19 03:46:00;;;;;;;;;17.33;15.00;;;;;18.10;100.00;101044.19;5031230;28;45554;-81
2023/06/19 03:48:25;;;;;;;;;15.00;10.67;;;;;18.52;100.00;101121.34;5036988;28;45390;-79
2023/06/19 03:51:04;;;;;;;;;15.00;13.67;;;;;18.16;100.00;101063.34;5038311;28;47361;-81
2023/06/19 03:54:26;;;;;;;;;15.00;15.00;;;;;17.92;100.00;101029.53;5044519;28;45681;-81
2023/06/19 03:56:52;;;;;;;;;16.00;15.00;;;;;18.05;100.00;101047.25;5004843;28;45369;-80
2023/06/19 03:59:49;;;;;;;;;19.33;15.33;;;;;18.06;100.00;101038.22;5049768;28;45360;-80
2023/06/19 04:02:15;;;;;;;;;15.67;14.00;;;;;18.12;100.00;101064.56;5038445;28;45456;-81
2023/06/19 04:04:56;;;;;;;;;16.67;15.00;;;;;18.51;100.00;101127.72;5043409;28;45788;-81
2023/06/19 04:07:21;;;;;;;;;14.67;14.00;;;;;18.32;100.00;101105.91;5047689;28;45597;-80
2023/06/19 04:09:47;;;;;;;;;15.00;14.00;;;;;18.46;100.00;101121.78;5064186;28;45306;-80
2023/06/19 04:12:12;;;;;;;;;17.67;17.67;;;;;18.22;100.00;101067.41;5061776;28;45246;-79
2023/06/19 04:14:37;;;;;;;;;20.67;17.00;;;;;18.16;100.00;101054.44;5062802;28;45549;-79
2023/06/19 04:17:03;;;;;;;;;17.33;15.33;;;;;18.36;100.00;101093.13;5062982;28;45333;-79
2023/06/19 04:19:29;;;;;;;;;22.00;17.67;;;;;18.26;100.00;101062.69;5045820;28;45632;-80
2023/06/19 04:21:55;;;;;;;;;18.00;18.00;;;;;18.35;100.00;101073.56;5061803;28;45467;-81
2023/06/19 04:24:26;;;;;;;;;17.33;16.00;;;;;18.11;100.00;101046.78;5045214;28;45672;-81
2023/06/19 04:27:12;;;;;;;;;17.33;16.67;;;;;18.69;100.00;101137.03;5058666;28;45414;-80
2023/06/19 04:29:38;;;;;;;;;18.67;17.33;;;;;18.46;100.00;101091.47;5034265;28;45527;-81
2023/06/19 04:32:24;;;;;;;;;17.33;17.33;;;;;18.48;100.00;101089.53;5062661;28;45380;-82
2023/06/19 04:35:01;;;;;;;;;20.33;18.00;;;;;18.39;100.00;101083.03;5060750;28;45509;-82
2023/06/19 04:37:36;;;;;;;;;;;;;;;;;;;;;
2023/06/19 04:40:30;;;;;;;;;20.33;18.00;;;;;18.84;100.00;101155.59;5053554;28;72947;-82
2023/06/19 04:43:19;;;;;;;;;16.33;15.67;;;;;18.57;100.00;101121.88;5059253;28;45606;-82
2023/06/19 04:46:03;;;;;;;;;17.67;17.67;;;;;18.88;100.00;101157.09;5052117;28;45483;-80
2023/06/19 04:48:30;;;;;;;;;23.00;18.00;;;;;18.79;100.00;101152.41;5066900;28;45369;-80
2023/06/19 04:51:00;;;;;;;;;20.33;18.00;;;;;18.54;100.00;101106.03;5054439;28;45616;-80
2023/06/19 04:53:31;;;;;;;;;20.33;18.33;;;;;18.83;100.00;101148.53;5051022;28;45532;-81
2023/06/19 04:56:02;;;;;;;;;17.33;16.00;;;;;18.95;100.00;101158.31;5066333;28;45506;-81
2023/06/19 04:58:31;;;;;;;;;22.33;16.33;;;;;18.44;100.00;101086.25;5073033;28;45581;-81
2023/06/19 05:01:25;;;;;;;;;;;;;;;;;;;;;
2023/06/19 05:04:19;;;;;;;;;16.33;16.00;;;;;18.63;100.00;101108.03;5073655;27;76778;-83
2023/06/19 05:07:17;;;;;;;;;13.67;13.00;;;;;18.94;100.00;101145.91;5074991;27;45578;-82
2023/06/19 05:10:29;;;;;;;;;17.67;17.33;;;;;19.08;100.00;101159.06;5052639;28;45509;-82
2023/06/19 05:13:10;;;;;;;;;19.33;15.67;;;;;19.10;100.00;101175.91;4967330;28;45501;-81
2023/06/19 05:15:36;;;;;;;;;21.33;20.00;;;;;18.95;100.00;101145.75;4962884;28;45624;-82
2023/06/19 05:18:08;;;;;;;;;16.33;16.33;;;;;19.06;100.00;101164.56;4985094;28;45440;-82
2023/06/19 05:20:37;;;;;;;;;22.00;16.67;;;;;18.55;100.00;101069.41;5006529;28;45427;-82
2023/06/19 05:23:55;;;;;;;;;17.67;15.33;;;;;18.59;100.00;101077.06;5067059;27;45487;-82
2023/06/19 05:26:42;;;;;;;;;14.67;14.67;;;;;19.24;100.00;101176.53;5065469;27;45777;-83
2023/06/19 05:29:30;;;;;;;;;15.00;14.33;;;;;18.66;100.00;101064.91;5063532;28;45379;-84
2023/06/19 05:32:25;;;;;;;;;21.67;18.00;;;;;19.03;100.00;101129.09;5072362;28;45509;-84
2023/06/19 05:35:52;;;;;;;;;;;;;;;;;;;;;
2023/06/19 05:38:33;;;;;;;;;;;;;;;;;;;;;
2023/06/19 05:40:59;;;;;;;;;18.00;18.00;;;;;18.84;100.00;101051.94;5078669;27;73844;-82
2023/06/19 05:43:49;;;;;;;;;17.33;16.67;;;;;19.50;100.00;101155.75;5060971;28;45507;-82
2023/06/19 05:46:27;;;;;;;;;21.00;17.33;;;;;19.47;100.00;101137.22;5063409;27;45245;-81
2023/06/19 05:49:41;;;;;;;;;18.33;18.33;;;;;19.32;100.00;101079.41;5075195;28;47462;-83
2023/06/19 05:52:52;;;;;;;;;;;;;;;;;;;;;
2023/06/19 05:55:58;;;;;;;;;18.67;16.33;;;;;20.04;100.00;101134.41;5067859;27;45378;-82
2023/06/19 05:58:48;;;;;;;;;19.67;16.00;;;;;20.05;100.00;101129.91;5079952;28;45473;-82
2023/06/19 06:01:30;;;;;;;;;19.00;18.67;;;;;19.91;100.00;101079.16;5058557;28;47211;-81
2023/06/19 06:04:25;;;;;;;;;21.33;19.33;;;;;19.72;100.00;101036.84;5064720;28;45384;-81
2023/06/19 06:07:27;;;;;;;;;21.00;17.00;;;;;20.00;100.00;101073.00;5059815;28;45412;-83
2023/06/19 06:09:52;;;;;;;;;18.67;17.67;;;;;20.33;100.00;101093.56;5057599;28;46127;-80
2023/06/19 06:12:50;;;;;;;;;20.00;17.67;;;;;20.53;100.00;101147.38;5061226;28;47263;-82
2023/06/19 06:15:31;;;;;;;;;19.33;15.00;;;;;20.08;100.00;101058.00;5069944;27;45424;-82
2023/06/19 06:18:28;;;;;;;;;16.33;16.33;;;;;20.18;100.00;101066.16;5061693;28;45471;-82
2023/06/19 06:21:34;;;;;;;;;;;;;;;;;;;;;
2023/06/19 06:24:58;;;;;;;;;17.67;17.00;;;;;20.65;100.00;101145.47;5077235;27;74597;-80
2023/06/19 06:31:55;;;;;;;;;;;;;;;;;;;;;
2023/06/19 06:38:37;;;;;;;;;20.00;19.33;;;;;20.94;100.00;101087.41;5075017;27;46116;-85
2023/06/19 06:41:59;;;;;;;;;25.67;19.00;;;;;21.35;100.00;101145.75;5069294;28;45547;-85
2023/06/19 06:52:30;;;;;;;;;;;;;;;;;;;;;
2023/06/19 06:59:59;;;;;;;;;;;;;;;;;;;;;
2023/06/19 07:03:37;;;;;;;;;19.00;17.00;;;;;21.48;100.00;101126.69;4882257;29;73148;-85
2023/06/19 07:10:12;;;;;;;;;15.00;13.67;;;;;21.89;96.77;101120.34;4948421;28;45540;-81
2023/06/19 07:16:27;;;;;;;;;13.33;13.00;;;;;21.91;94.68;101121.94;5043828;28;45420;-81
2023/06/19 07:29:37;;;;;;;;;19.00;16.00;;;;;21.96;94.50;101103.53;5042037;28;45473;-81
2023/06/19 07:32:20;;;;;;;;;12.67;12.00;;;;;22.26;96.91;101149.25;4992763;28;47289;-81
2023/06/19 07:35:11;;;;;;;;;16.67;14.33;;;;;22.14;96.69;101111.81;5029918;28;45331;-81
2023/06/19 07:38:10;;;;;;;;;19.67;16.00;;;;;22.19;92.73;101112.22;5018007;28;45385;-81
2023/06/19 07:41:00;;;;;;;;;14.00;14.00;;;;;22.72;98.16;101180.13;5033020;28;45346;-82
2023/06/19 07:53:19;;;;;;;;;;;;;;;;;;;;;
2023/06/19 07:56:22;;;;;;;;;19.00;15.67;;;;;22.81;89.91;101101.91;5002070;28;75674;-82
2023/06/19 07:59:36;;;;;;;;;;;;;;;;;;;;;
2023/06/19 08:02:36;;;;;;;;;17.00;15.67;;;;;22.77;87.43;101105.88;4984848;28;67393;-81
2023/06/19 08:05:44;;;;;;;;;;;;;;;;;;;;;
2023/06/19 08:08:37;;;;;;;;;18.67;15.00;;;;;23.30;85.35;101181.81;5016573;28;75267;-82
2023/06/19 08:11:42;;;;;;;;;16.33;15.67;;;;;23.57;86.50;101169.41;5029425;28;45549;-82
2023/06/19 08:14:28;;;;;;;;;16.00;13.33;;;;;23.32;85.66;101123.16;5024587;28;45502;-81
2023/06/19 08:17:41;;;;;;;;;;;;;;;;;;;;;
2023/06/19 08:20:50;;;;;;;;;20.00;18.00;;;;;23.74;84.95;101182.16;5050867;28;74914;-82
2023/06/19 08:27:02;;;;;;;;;;;;;;;;;;;;;
2023/06/19 08:30:34;;;;;;;;;;;;;;;;;;;;;
2023/06/19 08:33:37;;;;;;;;;;;;;;;;;;;;;
2023/06/19 08:39:43;;;;;;;;;17.67;14.67;;;;;23.55;84.02;101095.81;4997498;28;45550;-81
2023/06/19 08:42:38;;;;;;;;;;;;;;;;;;;;;
2023/06/19 08:49:17;;;;;;;;;;;;;;;;;;;;;
2023/06/19 08:51:52;;;;;;;;;13.33;12.33;;;;;24.53;75.91;101206.81;5069278;28;68475;-79
2023/06/19 08:54:27;;;;;;;;;9.00;8.67;;;;;24.17;77.18;101125.66;5066479;28;45302;-78
2023/06/19 08:57:10;;;;;;;;;;;;;;;;;;;;;
2023/06/19 09:03:54;;;;;;;;;;;;;;;;;;;;;
2023/06/19 09:07:14;;;;;;;;;10.33;8.33;;;;;25.30;74.88;101106.88;5068623;28;72244;-84
2023/06/19 09:10:03;;;;;;;;;10.67;10.33;;;;;25.63;70.51;101130.47;5050288;28;45423;-83
2023/06/19 09:16:49;;;;;;;;;;;;;;;;;;;;;
2023/06/19 09:19:52;;;;;;;;;;;;;;;;;;;;;
2023/06/19 09:22:54;;;;;;;;;;;;;;;;;;;;;
2023/06/19 09:26:06;;;;;;;;;9.00;9.00;;;;;26.15;70.34;101152.88;4974244;28;70843;-83
2023/06/19 09:29:03;;;;;;;;;;;;;;;;;;;;;
2023/06/19 09:34:42;;;;;;;;;8.33;7.33;;;;;25.79;67.37;101130.53;5017268;28;46077;-84
2023/06/19 09:44:11;;;;;;;;;9.33;6.00;;;;;27.12;64.60;101154.97;5053413;27;45644;-83
2023/06/19 09:47:22;;;;;;;;;9.00;7.00;;;;;26.98;59.13;101074.19;5061256;28;45592;-83
2023/06/19 09:50:15;;;;;;;;;7.00;6.00;;;;;26.65;62.07;101059.75;5053695;28;45544;-83
2023/06/19 09:52:59;;;;;;;;;5.00;3.00;;;;;26.57;64.74;101070.63;5060810;28;45388;-83
2023/06/19 09:56:03;;;;;;;;;8.67;6.00;;;;;26.47;64.38;101064.50;5061012;28;45492;-82
2023/06/19 09:59:12;;;;;;;;;6.00;6.00;;;;;26.95;64.58;101148.69;5057557;28;45698;-83
2023/06/19 10:02:05;;;;;;;;;;;;;;;;;;;;;
2023/06/19 10:05:12;;;;;;;;;7.33;7.33;;;;;26.82;63.10;101092.19;5083755;27;68256;-83
2023/06/19 10:08:07;;;;;;;;;7.00;7.00;;;;;26.75;62.68;101071.28;5021617;28;45912;-83
2023/06/19 10:14:36;;;;;;;;;;;;;;;;;;;;;
2023/06/19 10:17:22;;;;;;;;;6.00;6.00;;;;;27.08;64.85;101064.00;5073223;28;45522;-83
2023/06/19 10:20:03;;;;;;;;;5.00;5.00;;;;;27.62;60.75;101113.97;5080420;28;45285;-81
2023/06/19 10:25:50;;;;;;;;;8.00;7.33;;;;;27.93;61.36;101126.59;5076608;28;45169;-81
2023/06/19 10:28:35;;;;;;;;;6.67;5.33;;;;;27.87;57.12;101072.09;5064046;28;45535;-81
2023/06/19 10:31:09;;;;;;;;;8.00;7.00;;;;;27.79;57.28;101053.06;5064309;28;45574;-81
2023/06/19 10:33:49;;;;;;;;;3.33;1.67;;;;;28.17;56.68;101133.84;5061461;28;47175;-81
2023/06/19 10:36:22;;;;;;;;;7.00;5.00;;;;;27.96;54.12;101041.09;5054723;28;45376;-81
2023/06/19 10:38:59;;;;;;;;;6.33;5.33;;;;;28.53;54.58;101108.78;5049512;28;45497;-80
2023/06/19 10:41:37;;;;;;;;;7.00;7.00;;;;;28.16;51.58;101036.06;5048620;28;45472;-80
2023/06/19 10:44:27;;;;;;;;;5.00;5.00;;;;;28.91;54.10;101121.41;5049321;28;46972;-80
2023/06/19 10:47:02;;;;;;;;;7.00;6.00;;;;;29.16;52.14;101109.25;5044981;28;45402;-80
2023/06/19 10:49:34;;;;;;;;;9.00;7.00;;;;;28.91;53.36;101066.97;5069566;28;45517;-81
2023/06/19 10:52:00;;;;;;;;;6.00;5.00;;;;;28.72;50.93;101032.94;5047082;28;45477;-80
2023/06/19 10:54:38;;;;;;;;;8.00;5.00;;;;;28.50;51.03;101043.81;5055381;28;46999;-81
2023/06/19 10:57:08;;;;;;;;;6.33;6.33;;;;;28.36;52.36;101050.91;5053752;28;45261;-81
2023/06/19 10:59:36;;;;;;;;;5.00;5.00;;;;;28.07;51.99;101035.28;5069741;28;45397;-81
2023/06/19 11:02:09;;;;;;;;;6.00;5.33;;;;;28.59;53.97;101106.16;5056316;28;45737;-80
2023/06/19 11:08:52;;;;;;;;;8.00;6.00;;;;;28.65;55.60;101041.97;4990578;28;45367;-82
2023/06/19 11:11:59;;;;;;;;;6.33;6.00;;;;;28.83;55.35;101035.19;5038382;28;45569;-82
2023/06/19 11:18:01;;;;;;;;;8.33;7.33;;;;;29.16;52.02;101043.03;5045949;28;45639;-81
2023/06/19 11:21:32;;;;;;;;;;;;;;;;;;;;;
2023/06/19 11:24:29;;;;;;;;;8.00;6.67;;;;;29.04;50.58;101014.56;5063202;28;68487;-81
2023/06/19 11:27:09;;;;;;;;;;;;;;;;;;;;;
2023/06/19 11:30:06;;;;;;;;;7.00;6.00;;;;;29.22;52.45;101092.16;5067474;28;74050;-81
2023/06/19 11:33:21;;;;;;;;;9.00;9.00;;;;;28.60;50.14;101025.38;5056166;28;45483;-82
2023/06/19 11:36:30;;;;;;;;;9.00;8.00;;;;;28.84;53.04;101085.91;5036665;28;45460;-82
2023/06/19 11:43:10;;;;;;;;;;;;;;;;;;;;;
2023/06/19 11:56:28;;;;;;;;;8.67;8.67;;;;;27.88;55.59;100992.19;4951640;28;45603;-81
2023/06/19 11:59:33;;;;;;;;;7.33;7.33;;;;;28.18;55.67;101037.56;4928190;28;45585;-82
2023/06/19 12:05:56;;;;;;;;;11.67;7.00;;;;;28.15;53.77;101072.44;4868955;28;45590;-80
2023/06/19 12:08:45;;;;;;;;;8.00;8.00;;;;;27.81;53.85;101023.84;4973931;28;46471;-80
2023/06/19 12:11:43;;;;;;;;;8.33;7.00;;;;;27.89;53.31;101042.81;4975665;28;45347;-80
2023/06/19 12:22:02;;;;;;;;;;;;;;;;;;;;;
2023/06/19 12:25:16;;;;;;;;;8.00;6.67;;;;;27.71;55.82;101050.41;4925055;28;73473;-82
2023/06/19 12:28:01;;;;;;;;;7.33;7.33;;;;;27.42;55.32;101008.38;4974929;28;45374;-80
2023/06/19 12:35:04;;;;;;;;;8.00;8.00;;;;;27.44;56.26;101059.84;4981132;28;45765;-82
2023/06/19 12:44:32;;;;;;;;;8.67;5.33;;;;;26.95;58.36;101022.94;4882747;29;45543;-80
2023/06/19 12:50:50;;;;;;;;;8.67;6.00;;;;;26.93;54.91;101051.09;4901492;28;45506;-80
2023/06/19 12:53:54;;;;;;;;;6.00;5.33;;;;;26.22;55.23;100947.88;5016528;28;45429;-82
2023/06/19 12:56:56;;;;;;;;;6.00;4.67;;;;;26.26;57.14;100960.06;5054218;27;45436;-79
2023/06/19 12:59:46;;;;;;;;;5.00;5.00;;;;;26.66;57.11;101027.03;5068537;27;45494;-78
2023/06/19 13:03:04;;;;;;;;;;;;;;;;;;;;;
2023/06/19 13:09:59;;;;;;;;;7.00;7.00;;;;;26.40;60.04;101029.06;4991350;28;45674;-81
2023/06/19 13:13:10;;;;;;;;;5.00;5.00;;;;;25.86;58.33;100957.28;4971530;28;45424;-81
2023/06/19 13:22:55;;;;;;;;;;;;;;;;;;;;;
2023/06/19 13:33:04;;;;;;;;;8.00;7.33;;;;;25.39;66.01;100944.28;5024656;28;45597;-81
2023/06/19 13:36:29;;;;;;;;;9.00;8.00;;;;;25.44;75.27;100943.78;5083675;27;45625;-80
2023/06/19 13:43:35;;;;;;;;;9.00;9.00;;;;;25.90;67.26;101024.56;4939666;28;45431;-82
2023/06/19 13:46:56;;;;;;;;;;;;;;;;;;;;;
2023/06/19 13:50:20;;;;;;;;;;;;;;;;;;;;;
2023/06/19 13:57:40;;;;;;;;;;;;;;;;;;;;;
2023/06/19 14:08:39;;;;;;;;;8.33;7.33;;;;;25.19;75.89;100929.34;4838129;29;45599;-84
2023/06/19 14:34:03;;;;;;;;;7.67;7.67;;;;;25.42;74.45;100986.47;4917674;28;45590;-83
2023/06/19 14:37:25;;;;;;;;;;;;;;;;;;;;;
2023/06/19 14:43:57;;;;;;;;;;;;;;;;;;;;;
2023/06/19 14:58:55;;;;;;;;;;;;;;;;;;;;;
2023/06/19 15:05:40;;;;;;;;;;;;;;;;;;;;;
2023/06/19 15:12:34;;;;;;;;;;;;;;;;;;;;;
2023/06/19 15:15:47;;;;;;;;;7.33;7.33;;;;;25.52;71.93;100899.66;4970385;28;73081;-80
2023/06/19 15:18:59;;;;;;;;;;;;;;;;;;;;;
2023/06/19 15:22:09;;;;;;;;;10.67;9.00;;;;;25.39;68.73;100892.00;4946719;28;74413;-81
2023/06/19 15:32:36;;;;;;;;;;;;;;;;;;;;;
2023/06/19 15:35:41;;;;;;;;;;;;;;;;;;;;;
2023/06/19 15:49:10;;;;;;;;;;;;;;;;;;;;;
2023/06/19 15:52:18;;;;;;;;;;;;;;;;;;;;;
2023/06/19 15:54:44;;;;;;;;;13.33;10.33;;;;;26.23;75.23;100927.03;4973141;28;71943;-80
2023/06/19 15:58:10;;;;;;;;;8.67;8.67;;;;;26.54;72.60;100914.44;4979287;28;48211;-82
2023/06/19 16:00:56;;;;;;;;;13.00;12.00;;;;;26.36;68.64;100813.44;5017524;28;45919;-79
2023/06/19 16:03:50;;;;;;;;;;;;;;;;;;;;;
2023/06/19 16:06:27;;;;;;;;;15.33;15.33;;;;;26.92;68.27;100875.69;5053881;28;71435;-79
2023/06/19 16:09:35;;;;;;;;;15.33;13.67;;;;;26.51;68.75;100816.25;5043651;28;47890;-78
2023/06/19 16:12:35;;;;;;;;;10.33;10.33;;;;;26.46;68.83;100816.81;5061519;28;45316;-78
2023/06/19 16:18:49;;;;;;;;;15.33;13.33;;;;;26.26;67.38;100835.34;5055597;28;45634;-77
2023/06/19 16:29:17;;;;;;;;;13.67;13.67;;;;;26.07;70.12;100830.25;4999112;28;45534;-79
2023/06/19 16:32:32;;;;;;;;;;;;;;;;;;;;;
2023/06/19 16:35:54;;;;;;;;;;;;;;;;;;;;;
2023/06/19 16:45:07;;;;;;;;;10.67;10.00;;;;;26.57;68.23;100861.72;4997656;28;45654;-79
2023/06/19 16:47:53;;;;;;;;;15.33;11.33;;;;;26.23;65.75;100786.88;5008540;27;46686;-78
2023/06/19 16:51:13;;;;;;;;;9.00;9.00;;;;;26.67;69.67;100844.19;5062611;28;45352;-78
2023/06/19 16:57:28;;;;;;;;;;;;;;;;;;;;;
2023/06/19 17:00:43;;;;;;;;;9.33;9.33;;;;;27.49;64.79;100796.59;5036886;28;76120;-77
2023/06/19 17:06:15;;;;;;;;;8.67;8.67;;;;;30.23;57.99;100849.47;5030880;28;45457;-79
2023/06/19 17:08:54;;;;;;;;;10.00;10.00;;;;;30.90;56.68;100795.03;5021450;28;45322;-78
2023/06/19 17:11:42;;;;;;;;;9.33;9.33;;;;;31.95;52.37;100839.06;5018399;28;45699;-78
2023/06/19 17:14:31;;;;;;;;;6.00;6.00;;;;;31.56;51.60;100783.47;5014728;28;45429;-77
2023/06/19 17:17:26;;;;;;;;;8.00;8.00;;;;;30.23;54.88;100774.94;5036790;28;45826;-81
2023/06/19 17:20:11;;;;;;;;;;;;;;;;;;;;;
2023/06/19 17:26:20;;;;;;;;;11.67;10.00;;;;;28.48;61.83;100788.19;5068545;28;45391;-78
2023/06/19 17:29:31;;;;;;;;;11.67;10.00;;;;;28.52;62.96;100824.88;5033686;28;45542;-78
2023/06/19 17:36:02;;;;;;;;;;;;;;;;;;;;;
2023/06/19 17:39:07;;;;;;;;;10.33;9.67;;;;;27.76;64.05;100801.47;4979393;28;72824;-79
2023/06/19 17:41:53;;;;;;;;;;;;;;;;;;;;;
2023/06/19 17:44:47;;;;;;;;;;;;;;;;;;;;;
2023/06/19 17:47:50;;;;;;;;;9.00;8.67;;;;;27.41;65.69;100859.13;5074502;27;74416;-79
2023/06/19 18:00:42;;;;;;;;;11.67;11.67;;;;;26.35;69.44;100839.72;4995720;28;45640;-79
2023/06/19 18:03:27;;;;;;;;;9.67;9.67;;;;;26.02;68.46;100816.34;4984526;28;45533;-77
2023/06/19 18:06:13;;;;;;;;;9.67;9.67;;;;;25.95;70.51;100820.75;5053134;28;45546;-77
2023/06/19 18:12:19;;;;;;;;;11.33;9.33;;;;;26.19;70.97;100895.84;5031746;28;45735;-78
2023/06/19 18:15:20;;;;;;;;;10.33;9.00;;;;;25.54;71.07;100803.69;5050448;28;45428;-77
2023/06/19 18:28:39;;;;;;;;;9.00;9.00;;;;;25.55;71.96;100847.88;5029194;28;45460;-82
2023/06/19 18:32:03;;;;;;;;;14.00;12.67;;;;;25.29;73.55;100818.19;5073825;27;45482;-82
2023/06/19 18:35:38;;;;;;;;;;;;;;;;;;;;;
2023/06/19 18:38:40;;;;;;;;;12.33;9.00;;;;;25.53;75.05;100883.25;5015990;28;74363;-81
2023/06/19 18:44:57;;;;;;;;;10.67;9.33;;;;;25.39;75.37;100875.75;5059383;28;45444;-80
2023/06/19 18:47:28;;;;;;;;;11.33;10.67;;;;;25.02;75.87;100816.59;5064907;27;45877;-80
2023/06/19 18:50:25;;;;;;;;;9.67;9.67;;;;;25.02;77.65;100840.94;5045822;28;47296;-79
2023/06/19 18:53:12;;;;;;;;;13.00;9.33;;;;;24.84;77.40;100815.84;5048976;28;45432;-79
2023/06/19 18:56:24;;;;;;;;;;;;;;;;;;;;;
2023/06/19 19:02:35;;;;;;;;;12.33;11.33;;;;;24.67;79.20;100825.72;5024555;28;46836;-82
2023/06/19 19:05:14;;;;;;;;;11.67;10.67;;;;;24.41;79.17;100778.94;5017532;28;45354;-81
2023/06/19 19:08:37;;;;;;;;;11.00;9.67;;;;;24.65;79.89;100832.31;5056562;28;45597;-81
2023/06/19 19:15:33;;;;;;;;;13.33;12.00;;;;;24.83;82.25;100863.72;5013790;28;45957;-82
2023/06/19 19:18:14;;;;;;;;;8.33;8.00;;;;;24.72;82.51;100877.50;5065297;28;45494;-83
2023/06/19 19:21:07;;;;;;;;;10.67;10.67;;;;;24.27;81.84;100793.94;5078042;28;45517;-80
2023/06/19 19:23:33;;;;;;;;;11.33;11.33;;;;;24.73;83.38;100887.31;5039716;28;45468;-81
2023/06/19 19:26:15;;;;;;;;;11.33;11.33;;;;;24.56;83.50;100863.03;5034425;28;46180;-81
2023/06/19 19:29:07;;;;;;;;;13.00;11.00;;;;;24.15;84.06;100808.72;5024151;28;45350;-82
2023/06/19 19:31:43;;;;;;;;;11.33;9.33;;;;;24.39;85.18;100856.69;5030575;28;45524;-82
2023/06/19 19:34:43;;;;;;;;;11.67;11.67;;;;;24.38;85.20;100864.97;5045727;28;45641;-78
2023/06/19 19:37:33;;;;;;;;;10.33;10.33;;;;;24.12;85.73;100827.09;5046452;28;46328;-80
2023/06/19 19:40:07;;;;;;;;;13.00;11.00;;;;;24.44;86.75;100894.06;5024028;28;45287;-81
2023/06/19 19:43:17;;;;;;;;;12.00;10.33;;;;;24.43;87.60;100914.84;5027085;28;45353;-79
2023/06/19 19:46:01;;;;;;;;;14.67;13.33;;;;;23.99;89.33;100840.16;5033505;28;45415;-80
2023/06/19 19:48:30;;;;;;;;;12.00;11.67;;;;;23.99;89.08;100842.84;5038413;28;45973;-79